sensor_id;sensor_type;location;lat;lon;timestamp;P1;durP1;ratioP1;P2;durP2;ratioP2
3708;SDS011;1870;53.996;10.784;2023-06-22T00:01:53;5.30;;;4.23;;
3708;SDS011;1870;53.996;10.784;2023-06-22T00:04:19;11.40;;;4.80;;
3708;SDS011;1870;53.996;10.784;2023-06-22T00:06:44;6.90;;;5.30;;
3708;SDS011;1870;53.996;10.784;2023-06-22T00:09:10;5.27;;;4.37;;
3708;SDS011;1870;53.996;10.784;2023-06-22T00:11:36;7.47;;;4.93;;
3708;SDS011;1870;53.996;10.784;2023-06-22T00:14:03;5.40;;;4.03;;
3708;SDS011;1870;53.996;10.784;2023-06-22T00:16:29;6.23;;;4.13;;
3708;SDS011;1870;53.996;10.784;2023-06-22T00:18:56;7.07;;;4.63;;
3708;SDS011;1870;53.996;10.784;2023-06-22T00:21:25;8.00;;;4.10;;
3708;SDS011;1870;53.996;10.784;2023-06-22T00:23:54;6.43;;;4.60;;
3708;SDS011;1870;53.996;10.784;2023-06-22T00:26:20;7.97;;;5.47;;
3708;SDS011;1870;53.996;10.784;2023-06-22T00:28:46;8.10;;;4.40;;
3708;SDS011;1870;53.996;10.784;2023-06-22T00:31:12;10.40;;;4.53;;
3708;SDS011;1870;53.996;10.784;2023-06-22T00:33:38;7.23;;;4.53;;
3708;SDS011;1870;53.996;10.784;2023-06-22T00:36:04;6.73;;;4.23;;
3708;SDS011;1870;53.996;10.784;2023-06-22T00:38:31;10.07;;;5.13;;
3708;SDS011;1870;53.996;10.784;2023-06-22T00:40:56;5.93;;;4.40;;
3708;SDS011;1870;53.996;10.784;2023-06-22T00:43:22;6.93;;;4.70;;
3708;SDS011;1870;53.996;10.784;2023-06-22T00:45:48;5.30;;;4.50;;
3708;SDS011;1870;53.996;10.784;2023-06-22T00:48:13;8.13;;;5.63;;
3708;SDS011;1870;53.996;10.784;2023-06-22T00:50:43;9.60;;;5.40;;
3708;SDS011;1870;53.996;10.784;2023-06-22T00:53:09;6.70;;;4.40;;
3708;SDS011;1870;53.996;10.784;2023-06-22T00:55:36;6.13;;;4.60;;
3708;SDS011;1870;53.996;10.784;2023-06-22T00:58:10;9.40;;;5.83;;
3708;SDS011;1870;53.996;10.784;2023-06-22T01:00:37;6.43;;;5.60;;
3708;SDS011;1870;53.996;10.784;2023-06-22T01:03:03;12.20;;;5.40;;
3708;SDS011;1870;53.996;10.784;2023-06-22T01:05:31;8.73;;;5.20;;
3708;SDS011;1870;53.996;10.784;2023-06-22T01:08:04;7.70;;;4.90;;
3708;SDS011;1870;53.996;10.784;2023-06-22T01:10:57;8.90;;;5.57;;
3708;SDS011;1870;53.996;10.784;2023-06-22T01:13:32;9.33;;;6.27;;
3708;SDS011;1870;53.996;10.784;2023-06-22T01:18:55;9.63;;;5.87;;
3708;SDS011;1870;53.996;10.784;2023-06-22T01:21:27;12.80;;;5.90;;
3708;SDS011;1870;53.996;10.784;2023-06-22T01:29:38;9.13;;;5.77;;
3708;SDS011;1870;53.996;10.784;2023-06-22T01:32:06;8.97;;;5.93;;
3708;SDS011;1870;53.996;10.784;2023-06-22T01:34:32;9.60;;;5.83;;
3708;SDS011;1870;53.996;10.784;2023-06-22T01:36:59;8.20;;;5.10;;
3708;SDS011;1870;53.996;10.784;2023-06-22T01:39:27;14.83;;;7.40;;
3708;SDS011;1870;53.996;10.784;2023-06-22T01:41:53;9.30;;;5.70;;
3708;SDS011;1870;53.996;10.784;2023-06-22T01:44:19;11.23;;;6.67;;
3708;SDS011;1870;53.996;10.784;2023-06-22T01:46:46;9.90;;;6.40;;
3708;SDS011;1870;53.996;10.784;2023-06-22T01:49:14;10.53;;;4.83;;
3708;SDS011;1870;53.996;10.784;2023-06-22T01:51:40;10.93;;;6.20;;
3708;SDS011;1870;53.996;10.784;2023-06-22T01:54:06;8.83;;;5.90;;
3708;SDS011;1870;53.996;10.784;2023-06-22T01:56:33;13.63;;;6.20;;
3708;SDS011;1870;53.996;10.784;2023-06-22T02:01:30;7.97;;;5.27;;
3708;SDS011;1870;53.996;10.784;2023-06-22T02:04:02;17.50;;;7.23;;
3708;SDS011;1870;53.996;10.784;2023-06-22T02:06:37;8.17;;;5.80;;
3708;SDS011;1870;53.996;10.784;2023-06-22T02:09:15;17.70;;;7.77;;
3708;SDS011;1870;53.996;10.784;2023-06-22T02:11:43;10.60;;;6.20;;
3708;SDS011;1870;53.996;10.784;2023-06-22T02:14:11;21.50;;;9.00;;
3708;SDS011;1870;53.996;10.784;2023-06-22T02:16:38;16.83;;;7.97;;
3708;SDS011;1870;53.996;10.784;2023-06-22T02:19:05;24.63;;;9.20;;
3708;SDS011;1870;53.996;10.784;2023-06-22T02:21:31;20.20;;;7.53;;
3708;SDS011;1870;53.996;10.784;2023-06-22T02:23:57;17.97;;;8.00;;
3708;SDS011;1870;53.996;10.784;2023-06-22T02:26:24;15.23;;;7.70;;
3708;SDS011;1870;53.996;10.784;2023-06-22T02:28:51;26.63;;;8.37;;
3708;SDS011;1870;53.996;10.784;2023-06-22T02:31:17;29.53;;;12.50;;
3708;SDS011;1870;53.996;10.784;2023-06-22T02:33:43;35.97;;;13.80;;
3708;SDS011;1870;53.996;10.784;2023-06-22T02:36:09;26.13;;;10.60;;
3708;SDS011;1870;53.996;10.784;2023-06-22T02:38:38;14.53;;;7.60;;
3708;SDS011;1870;53.996;10.784;2023-06-22T02:41:05;13.47;;;6.90;;
3708;SDS011;1870;53.996;10.784;2023-06-22T02:43:31;13.53;;;6.37;;
3708;SDS011;1870;53.996;10.784;2023-06-22T02:45:57;18.30;;;6.93;;
3708;SDS011;1870;53.996;10.784;2023-06-22T02:48:23;12.03;;;6.80;;
3708;SDS011;1870;53.996;10.784;2023-06-22T02:50:48;13.30;;;7.93;;
3708;SDS011;1870;53.996;10.784;2023-06-22T02:53:14;13.10;;;7.30;;
3708;SDS011;1870;53.996;10.784;2023-06-22T02:55:40;14.90;;;6.20;;
3708;SDS011;1870;53.996;10.784;2023-06-22T02:58:06;8.87;;;5.13;;
3708;SDS011;1870;53.996;10.784;2023-06-22T03:00:31;14.50;;;6.70;;
3708;SDS011;1870;53.996;10.784;2023-06-22T03:02:57;11.20;;;5.80;;
3708;SDS011;1870;53.996;10.784;2023-06-22T03:05:23;10.23;;;6.23;;
3708;SDS011;1870;53.996;10.784;2023-06-22T03:07:49;13.43;;;6.67;;
3708;SDS011;1870;53.996;10.784;2023-06-22T03:10:15;6.90;;;4.80;;
3708;SDS011;1870;53.996;10.784;2023-06-22T03:12:41;11.67;;;4.40;;
3708;SDS011;1870;53.996;10.784;2023-06-22T03:15:08;9.23;;;5.83;;
3708;SDS011;1870;53.996;10.784;2023-06-22T03:17:35;7.87;;;4.67;;
3708;SDS011;1870;53.996;10.784;2023-06-22T03:20:03;6.63;;;4.70;;
3708;SDS011;1870;53.996;10.784;2023-06-22T03:22:40;9.20;;;5.43;;
3708;SDS011;1870;53.996;10.784;2023-06-22T03:25:07;9.17;;;4.30;;
3708;SDS011;1870;53.996;10.784;2023-06-22T03:27:38;6.90;;;5.10;;
3708;SDS011;1870;53.996;10.784;2023-06-22T03:30:05;9.40;;;5.53;;
3708;SDS011;1870;53.996;10.784;2023-06-22T03:32:32;6.27;;;4.27;;
3708;SDS011;1870;53.996;10.784;2023-06-22T03:34:57;8.07;;;5.27;;
3708;SDS011;1870;53.996;10.784;2023-06-22T03:37:24;9.60;;;5.83;;
3708;SDS011;1870;53.996;10.784;2023-06-22T03:39:51;10.33;;;6.63;;
3708;SDS011;1870;53.996;10.784;2023-06-22T03:42:17;8.20;;;5.73;;
3708;SDS011;1870;53.996;10.784;2023-06-22T03:44:43;9.70;;;5.10;;
3708;SDS011;1870;53.996;10.784;2023-06-22T03:47:08;10.47;;;5.40;;
3708;SDS011;1870;53.996;10.784;2023-06-22T03:49:34;9.83;;;4.70;;
3708;SDS011;1870;53.996;10.784;2023-06-22T03:52:02;7.37;;;4.83;;
3708;SDS011;1870;53.996;10.784;2023-06-22T03:54:29;9.00;;;6.13;;
3708;SDS011;1870;53.996;10.784;2023-06-22T03:56:58;7.27;;;4.60;;
3708;SDS011;1870;53.996;10.784;2023-06-22T03:59:24;9.40;;;6.07;;
3708;SDS011;1870;53.996;10.784;2023-06-22T04:01:50;14.03;;;7.30;;
3708;SDS011;1870;53.996;10.784;2023-06-22T04:04:19;18.83;;;7.40;;
3708;SDS011;1870;53.996;10.784;2023-06-22T04:06:46;16.73;;;7.47;;
3708;SDS011;1870;53.996;10.784;2023-06-22T04:09:11;11.20;;;6.53;;
3708;SDS011;1870;53.996;10.784;2023-06-22T04:11:37;14.37;;;7.97;;
3708;SDS011;1870;53.996;10.784;2023-06-22T04:14:03;9.00;;;5.33;;
3708;SDS011;1870;53.996;10.784;2023-06-22T04:16:28;10.03;;;5.40;;
3708;SDS011;1870;53.996;10.784;2023-06-22T04:18:54;8.17;;;5.50;;
3708;SDS011;1870;53.996;10.784;2023-06-22T04:21:20;9.17;;;5.73;;
3708;SDS011;1870;53.996;10.784;2023-06-22T04:23:46;9.63;;;4.87;;
3708;SDS011;1870;53.996;10.784;2023-06-22T04:26:12;10.77;;;5.93;;
3708;SDS011;1870;53.996;10.784;2023-06-22T04:28:40;6.90;;;4.97;;
3708;SDS011;1870;53.996;10.784;2023-06-22T04:31:06;10.70;;;5.60;;
3708;SDS011;1870;53.996;10.784;2023-06-22T04:33:32;14.60;;;6.00;;
3708;SDS011;1870;53.996;10.784;2023-06-22T04:35:58;8.10;;;5.17;;
3708;SDS011;1870;53.996;10.784;2023-06-22T04:38:26;7.97;;;5.17;;
3708;SDS011;1870;53.996;10.784;2023-06-22T04:40:52;7.93;;;5.20;;
3708;SDS011;1870;53.996;10.784;2023-06-22T04:43:18;8.37;;;5.73;;
3708;SDS011;1870;53.996;10.784;2023-06-22T04:45:44;8.13;;;5.53;;
3708;SDS011;1870;53.996;10.784;2023-06-22T04:48:10;16.63;;;5.97;;
3708;SDS011;1870;53.996;10.784;2023-06-22T04:50:40;12.80;;;5.50;;
3708;SDS011;1870;53.996;10.784;2023-06-22T04:53:06;9.30;;;5.70;;
3708;SDS011;1870;53.996;10.784;2023-06-22T04:55:32;8.07;;;4.90;;
3708;SDS011;1870;53.996;10.784;2023-06-22T04:57:58;8.00;;;4.70;;
3708;SDS011;1870;53.996;10.784;2023-06-22T05:00:29;9.53;;;4.60;;
3708;SDS011;1870;53.996;10.784;2023-06-22T05:02:56;7.50;;;4.93;;
3708;SDS011;1870;53.996;10.784;2023-06-22T05:05:23;6.03;;;4.30;;
3708;SDS011;1870;53.996;10.784;2023-06-22T05:07:49;5.17;;;4.07;;
3708;SDS011;1870;53.996;10.784;2023-06-22T05:10:17;5.40;;;3.80;;
3708;SDS011;1870;53.996;10.784;2023-06-22T05:12:46;4.70;;;4.20;;
3708;SDS011;1870;53.996;10.784;2023-06-22T05:15:12;8.33;;;4.20;;
3708;SDS011;1870;53.996;10.784;2023-06-22T05:17:37;6.47;;;4.47;;
3708;SDS011;1870;53.996;10.784;2023-06-22T05:20:10;10.13;;;5.20;;
3708;SDS011;1870;53.996;10.784;2023-06-22T05:22:37;5.07;;;4.57;;
3708;SDS011;1870;53.996;10.784;2023-06-22T05:25:04;7.90;;;4.47;;
3708;SDS011;1870;53.996;10.784;2023-06-22T05:27:31;39.93;;;7.43;;
3708;SDS011;1870;53.996;10.784;2023-06-22T05:29:57;5.43;;;4.13;;
3708;SDS011;1870;53.996;10.784;2023-06-22T05:32:22;6.30;;;4.63;;
3708;SDS011;1870;53.996;10.784;2023-06-22T05:34:48;5.77;;;4.93;;
3708;SDS011;1870;53.996;10.784;2023-06-22T05:37:13;7.53;;;4.23;;
3708;SDS011;1870;53.996;10.784;2023-06-22T05:39:39;4.70;;;4.03;;
3708;SDS011;1870;53.996;10.784;2023-06-22T05:42:05;6.10;;;4.47;;
3708;SDS011;1870;53.996;10.784;2023-06-22T05:44:31;7.50;;;4.27;;
3708;SDS011;1870;53.996;10.784;2023-06-22T05:46:58;5.43;;;4.00;;
3708;SDS011;1870;53.996;10.784;2023-06-22T05:49:24;5.17;;;3.80;;
3708;SDS011;1870;53.996;10.784;2023-06-22T05:51:54;4.67;;;4.27;;
3708;SDS011;1870;53.996;10.784;2023-06-22T05:54:21;7.77;;;3.93;;
3708;SDS011;1870;53.996;10.784;2023-06-22T05:56:47;3.50;;;3.00;;
3708;SDS011;1870;53.996;10.784;2023-06-22T05:59:13;6.17;;;3.60;;
3708;SDS011;1870;53.996;10.784;2023-06-22T06:01:40;7.07;;;3.80;;
3708;SDS011;1870;53.996;10.784;2023-06-22T06:04:06;5.30;;;4.40;;
3708;SDS011;1870;53.996;10.784;2023-06-22T06:06:34;4.60;;;3.90;;
3708;SDS011;1870;53.996;10.784;2023-06-22T06:09:03;4.70;;;3.90;;
3708;SDS011;1870;53.996;10.784;2023-06-22T06:11:29;4.17;;;3.40;;
3708;SDS011;1870;53.996;10.784;2023-06-22T06:13:56;4.90;;;3.93;;
3708;SDS011;1870;53.996;10.784;2023-06-22T06:16:22;5.87;;;4.10;;
3708;SDS011;1870;53.996;10.784;2023-06-22T06:18:47;4.17;;;3.77;;
3708;SDS011;1870;53.996;10.784;2023-06-22T06:21:16;4.20;;;3.80;;
3708;SDS011;1870;53.996;10.784;2023-06-22T06:23:42;5.20;;;4.00;;
3708;SDS011;1870;53.996;10.784;2023-06-22T06:26:07;4.40;;;3.77;;
3708;SDS011;1870;53.996;10.784;2023-06-22T06:28:34;5.10;;;3.60;;
3708;SDS011;1870;53.996;10.784;2023-06-22T06:31:00;4.63;;;4.17;;
3708;SDS011;1870;53.996;10.784;2023-06-22T06:33:26;4.13;;;3.50;;
3708;SDS011;1870;53.996;10.784;2023-06-22T06:35:54;4.67;;;3.97;;
3708;SDS011;1870;53.996;10.784;2023-06-22T06:38:20;8.63;;;3.83;;
3708;SDS011;1870;53.996;10.784;2023-06-22T06:40:46;5.93;;;4.10;;
3708;SDS011;1870;53.996;10.784;2023-06-22T06:43:13;4.30;;;3.90;;
3708;SDS011;1870;53.996;10.784;2023-06-22T06:45:45;5.70;;;4.03;;
3708;SDS011;1870;53.996;10.784;2023-06-22T06:48:19;5.33;;;4.27;;
3708;SDS011;1870;53.996;10.784;2023-06-22T06:50:48;7.83;;;4.23;;
3708;SDS011;1870;53.996;10.784;2023-06-22T06:53:15;8.50;;;4.30;;
3708;SDS011;1870;53.996;10.784;2023-06-22T06:55:43;5.40;;;4.13;;
3708;SDS011;1870;53.996;10.784;2023-06-22T06:58:10;4.97;;;4.20;;
3708;SDS011;1870;53.996;10.784;2023-06-22T07:00:38;7.63;;;4.67;;
3708;SDS011;1870;53.996;10.784;2023-06-22T07:03:04;4.77;;;3.40;;
3708;SDS011;1870;53.996;10.784;2023-06-22T07:05:30;5.17;;;4.13;;
3708;SDS011;1870;53.996;10.784;2023-06-22T07:07:56;4.03;;;3.40;;
3708;SDS011;1870;53.996;10.784;2023-06-22T07:10:21;4.30;;;3.23;;
3708;SDS011;1870;53.996;10.784;2023-06-22T07:12:47;4.40;;;3.53;;
3708;SDS011;1870;53.996;10.784;2023-06-22T07:15:12;5.50;;;4.03;;
3708;SDS011;1870;53.996;10.784;2023-06-22T07:17:38;4.77;;;3.90;;
3708;SDS011;1870;53.996;10.784;2023-06-22T07:20:06;6.80;;;4.47;;
3708;SDS011;1870;53.996;10.784;2023-06-22T07:22:35;4.27;;;3.73;;
3708;SDS011;1870;53.996;10.784;2023-06-22T07:25:01;4.40;;;4.00;;
3708;SDS011;1870;53.996;10.784;2023-06-22T07:27:35;5.00;;;4.33;;
3708;SDS011;1870;53.996;10.784;2023-06-22T07:30:13;9.37;;;5.10;;
3708;SDS011;1870;53.996;10.784;2023-06-22T07:32:40;5.63;;;4.00;;
3708;SDS011;1870;53.996;10.784;2023-06-22T07:35:06;8.20;;;4.33;;
3708;SDS011;1870;53.996;10.784;2023-06-22T07:37:32;4.60;;;4.00;;
3708;SDS011;1870;53.996;10.784;2023-06-22T07:40:00;4.13;;;3.73;;
3708;SDS011;1870;53.996;10.784;2023-06-22T07:42:26;4.57;;;4.17;;
3708;SDS011;1870;53.996;10.784;2023-06-22T07:44:52;5.07;;;4.40;;
3708;SDS011;1870;53.996;10.784;2023-06-22T07:47:18;4.77;;;3.70;;
3708;SDS011;1870;53.996;10.784;2023-06-22T07:49:47;4.37;;;3.97;;
3708;SDS011;1870;53.996;10.784;2023-06-22T07:52:22;4.63;;;3.30;;
3708;SDS011;1870;53.996;10.784;2023-06-22T07:55:02;6.13;;;4.55;;
3708;SDS011;1870;53.996;10.784;2023-06-22T07:57:29;5.80;;;3.80;;
3708;SDS011;1870;53.996;10.784;2023-06-22T08:03:32;5.60;;;4.50;;
3708;SDS011;1870;53.996;10.784;2023-06-22T08:06:12;5.20;;;4.70;;
3708;SDS011;1870;53.996;10.784;2023-06-22T08:09:13;4.57;;;4.13;;
3708;SDS011;1870;53.996;10.784;2023-06-22T08:11:40;4.73;;;3.87;;
3708;SDS011;1870;53.996;10.784;2023-06-22T08:17:03;5.13;;;4.20;;
3708;SDS011;1870;53.996;10.784;2023-06-22T08:19:32;4.03;;;3.73;;
3708;SDS011;1870;53.996;10.784;2023-06-22T08:22:26;5.87;;;4.77;;
3708;SDS011;1870;53.996;10.784;2023-06-22T08:24:53;4.60;;;4.03;;
3708;SDS011;1870;53.996;10.784;2023-06-22T08:27:25;5.10;;;4.00;;
3708;SDS011;1870;53.996;10.784;2023-06-22T08:30:12;6.43;;;4.57;;
3708;SDS011;1870;53.996;10.784;2023-06-22T08:32:45;5.43;;;4.93;;
3708;SDS011;1870;53.996;10.784;2023-06-22T08:35:14;4.60;;;4.20;;
3708;SDS011;1870;53.996;10.784;2023-06-22T08:44:18;6.90;;;3.73;;
3708;SDS011;1870;53.996;10.784;2023-06-22T08:46:50;3.93;;;3.50;;
3708;SDS011;1870;53.996;10.784;2023-06-22T08:49:15;4.37;;;3.97;;
3708;SDS011;1870;53.996;10.784;2023-06-22T08:51:51;3.90;;;3.60;;
3708;SDS011;1870;53.996;10.784;2023-06-22T08:54:31;3.67;;;3.20;;
3708;SDS011;1870;53.996;10.784;2023-06-22T08:57:08;4.83;;;3.93;;
3708;SDS011;1870;53.996;10.784;2023-06-22T08:59:43;3.80;;;3.50;;
3708;SDS011;1870;53.996;10.784;2023-06-22T09:02:09;6.40;;;5.03;;
3708;SDS011;1870;53.996;10.784;2023-06-22T09:04:42;3.63;;;3.33;;
3708;SDS011;1870;53.996;10.784;2023-06-22T09:07:08;3.53;;;3.23;;
3708;SDS011;1870;53.996;10.784;2023-06-22T09:12:33;3.93;;;3.60;;
3708;SDS011;1870;53.996;10.784;2023-06-22T09:21:46;3.90;;;3.60;;
3708;SDS011;1870;53.996;10.784;2023-06-22T09:24:12;3.90;;;3.57;;
3708;SDS011;1870;53.996;10.784;2023-06-22T09:26:40;3.80;;;3.50;;
3708;SDS011;1870;53.996;10.784;2023-06-22T09:29:15;4.60;;;4.30;;
3708;SDS011;1870;53.996;10.784;2023-06-22T09:31:53;4.23;;;3.47;;
3708;SDS011;1870;53.996;10.784;2023-06-22T09:34:25;3.80;;;3.50;;
3708;SDS011;1870;53.996;10.784;2023-06-22T09:36:51;4.03;;;3.73;;
3708;SDS011;1870;53.996;10.784;2023-06-22T09:39:20;4.20;;;4.00;;
3708;SDS011;1870;53.996;10.784;2023-06-22T09:41:48;3.70;;;3.50;;
3708;SDS011;1870;53.996;10.784;2023-06-22T09:44:23;3.30;;;3.10;;
3708;SDS011;1870;53.996;10.784;2023-06-22T09:46:49;3.87;;;3.57;;
3708;SDS011;1870;53.996;10.784;2023-06-22T09:49:15;3.90;;;3.60;;
3708;SDS011;1870;53.996;10.784;2023-06-22T09:51:40;3.67;;;3.37;;
3708;SDS011;1870;53.996;10.784;2023-06-22T09:54:06;3.53;;;3.23;;
3708;SDS011;1870;53.996;10.784;2023-06-22T09:56:32;4.00;;;3.70;;
3708;SDS011;1870;53.996;10.784;2023-06-22T09:58:57;3.50;;;3.20;;
3708;SDS011;1870;53.996;10.784;2023-06-22T10:01:23;5.10;;;3.80;;
3708;SDS011;1870;53.996;10.784;2023-06-22T10:03:49;4.20;;;3.80;;
3708;SDS011;1870;53.996;10.784;2023-06-22T10:06:19;4.33;;;3.97;;
3708;SDS011;1870;53.996;10.784;2023-06-22T10:08:45;4.37;;;3.70;;
3708;SDS011;1870;53.996;10.784;2023-06-22T10:11:11;3.10;;;2.90;;
3708;SDS011;1870;53.996;10.784;2023-06-22T10:13:36;4.03;;;3.73;;
3708;SDS011;1870;53.996;10.784;2023-06-22T10:16:02;3.77;;;3.57;;
3708;SDS011;1870;53.996;10.784;2023-06-22T10:18:28;5.03;;;3.80;;
3708;SDS011;1870;53.996;10.784;2023-06-22T10:20:55;5.23;;;3.43;;
3708;SDS011;1870;53.996;10.784;2023-06-22T10:23:21;4.03;;;3.77;;
3708;SDS011;1870;53.996;10.784;2023-06-22T10:25:47;4.47;;;4.10;;
3708;SDS011;1870;53.996;10.784;2023-06-22T10:28:13;4.47;;;4.07;;
3708;SDS011;1870;53.996;10.784;2023-06-22T10:30:39;4.17;;;3.80;;
3708;SDS011;1870;53.996;10.784;2023-06-22T10:33:08;6.30;;;4.53;;
3708;SDS011;1870;53.996;10.784;2023-06-22T10:35:35;5.03;;;4.20;;
3708;SDS011;1870;53.996;10.784;2023-06-22T10:38:02;3.87;;;3.63;;
3708;SDS011;1870;53.996;10.784;2023-06-22T10:40:28;3.60;;;3.30;;
3708;SDS011;1870;53.996;10.784;2023-06-22T10:48:01;5.10;;;4.60;;
3708;SDS011;1870;53.996;10.784;2023-06-22T10:53:46;6.83;;;4.07;;
3708;SDS011;1870;53.996;10.784;2023-06-22T10:56:17;5.20;;;4.80;;
3708;SDS011;1870;53.996;10.784;2023-06-22T10:58:46;5.80;;;5.30;;
3708;SDS011;1870;53.996;10.784;2023-06-22T11:01:11;4.00;;;3.70;;
3708;SDS011;1870;53.996;10.784;2023-06-22T11:03:40;5.23;;;4.30;;
3708;SDS011;1870;53.996;10.784;2023-06-22T11:06:06;4.57;;;4.17;;
3708;SDS011;1870;53.996;10.784;2023-06-22T11:08:34;4.33;;;4.03;;
3708;SDS011;1870;53.996;10.784;2023-06-22T11:11:06;4.77;;;4.30;;
3708;SDS011;1870;53.996;10.784;2023-06-22T11:13:35;4.50;;;4.20;;
3708;SDS011;1870;53.996;10.784;2023-06-22T11:16:15;4.30;;;4.00;;
3708;SDS011;1870;53.996;10.784;2023-06-22T11:18:50;4.90;;;4.33;;
3708;SDS011;1870;53.996;10.784;2023-06-22T11:21:15;4.77;;;4.37;;
3708;SDS011;1870;53.996;10.784;2023-06-22T11:23:41;4.80;;;4.30;;
3708;SDS011;1870;53.996;10.784;2023-06-22T11:26:07;3.97;;;3.70;;
3708;SDS011;1870;53.996;10.784;2023-06-22T11:28:35;3.90;;;3.60;;
3708;SDS011;1870;53.996;10.784;2023-06-22T11:31:01;5.87;;;4.23;;
3708;SDS011;1870;53.996;10.784;2023-06-22T11:33:27;4.40;;;4.00;;
3708;SDS011;1870;53.996;10.784;2023-06-22T11:35:52;5.50;;;3.77;;
3708;SDS011;1870;53.996;10.784;2023-06-22T11:38:23;4.60;;;3.60;;
3708;SDS011;1870;53.996;10.784;2023-06-22T11:40:55;4.40;;;4.10;;
3708;SDS011;1870;53.996;10.784;2023-06-22T11:43:23;3.90;;;3.67;;
3708;SDS011;1870;53.996;10.784;2023-06-22T11:45:48;4.53;;;4.13;;
3708;SDS011;1870;53.996;10.784;2023-06-22T11:48:14;5.03;;;4.53;;
3708;SDS011;1870;53.996;10.784;2023-06-22T11:50:40;4.30;;;3.77;;
3708;SDS011;1870;53.996;10.784;2023-06-22T11:53:11;6.90;;;4.93;;
3708;SDS011;1870;53.996;10.784;2023-06-22T11:55:37;9.60;;;4.20;;
3708;SDS011;1870;53.996;10.784;2023-06-22T11:58:02;4.63;;;4.23;;
3708;SDS011;1870;53.996;10.784;2023-06-22T12:00:30;5.07;;;4.57;;
3708;SDS011;1870;53.996;10.784;2023-06-22T12:02:56;4.10;;;3.80;;
3708;SDS011;1870;53.996;10.784;2023-06-22T12:05:21;4.87;;;4.50;;
3708;SDS011;1870;53.996;10.784;2023-06-22T12:07:48;4.97;;;4.57;;
3708;SDS011;1870;53.996;10.784;2023-06-22T12:10:14;5.43;;;5.03;;
3708;SDS011;1870;53.996;10.784;2023-06-22T12:12:39;5.10;;;4.70;;
3708;SDS011;1870;53.996;10.784;2023-06-22T12:15:05;4.83;;;4.53;;
3708;SDS011;1870;53.996;10.784;2023-06-22T12:17:31;4.50;;;4.10;;
3708;SDS011;1870;53.996;10.784;2023-06-22T12:19:58;5.43;;;5.03;;
3708;SDS011;1870;53.996;10.784;2023-06-22T12:22:23;7.30;;;4.83;;
3708;SDS011;1870;53.996;10.784;2023-06-22T12:24:49;6.30;;;4.40;;
3708;SDS011;1870;53.996;10.784;2023-06-22T12:27:15;5.10;;;4.57;;
3708;SDS011;1870;53.996;10.784;2023-06-22T12:29:43;4.80;;;4.40;;
3708;SDS011;1870;53.996;10.784;2023-06-22T12:32:28;4.67;;;4.27;;
3708;SDS011;1870;53.996;10.784;2023-06-22T12:45:26;4.57;;;4.17;;
3708;SDS011;1870;53.996;10.784;2023-06-22T12:48:04;4.90;;;4.50;;
3708;SDS011;1870;53.996;10.784;2023-06-22T12:51:00;5.57;;;4.30;;
3708;SDS011;1870;53.996;10.784;2023-06-22T12:54:07;4.30;;;4.00;;
3708;SDS011;1870;53.996;10.784;2023-06-22T12:56:37;6.83;;;4.30;;
3708;SDS011;1870;53.996;10.784;2023-06-22T12:59:08;4.20;;;3.90;;
3708;SDS011;1870;53.996;10.784;2023-06-22T13:01:40;6.10;;;4.13;;
3708;SDS011;1870;53.996;10.784;2023-06-22T13:04:05;4.23;;;3.70;;
3708;SDS011;1870;53.996;10.784;2023-06-22T13:06:31;6.00;;;4.67;;
3708;SDS011;1870;53.996;10.784;2023-06-22T13:08:57;5.97;;;4.53;;
3708;SDS011;1870;53.996;10.784;2023-06-22T13:11:25;5.27;;;4.63;;
3708;SDS011;1870;53.996;10.784;2023-06-22T13:13:51;4.83;;;4.43;;
3708;SDS011;1870;53.996;10.784;2023-06-22T13:16:34;5.27;;;4.50;;
3708;SDS011;1870;53.996;10.784;2023-06-22T13:22:41;5.00;;;4.60;;
3708;SDS011;1870;53.996;10.784;2023-06-22T13:25:11;5.97;;;5.10;;
3708;SDS011;1870;53.996;10.784;2023-06-22T13:27:41;5.43;;;4.80;;
3708;SDS011;1870;53.996;10.784;2023-06-22T13:30:09;4.20;;;3.90;;
3708;SDS011;1870;53.996;10.784;2023-06-22T13:32:36;3.93;;;3.53;;
3708;SDS011;1870;53.996;10.784;2023-06-22T13:35:01;4.23;;;3.93;;
3708;SDS011;1870;53.996;10.784;2023-06-22T13:37:28;4.93;;;4.43;;
3708;SDS011;1870;53.996;10.784;2023-06-22T13:39:54;5.17;;;4.67;;
3708;SDS011;1870;53.996;10.784;2023-06-22T13:42:21;4.33;;;3.90;;
3708;SDS011;1870;53.996;10.784;2023-06-22T13:44:49;5.20;;;4.70;;
3708;SDS011;1870;53.996;10.784;2023-06-22T13:47:44;5.50;;;4.17;;
3708;SDS011;1870;53.996;10.784;2023-06-22T13:53:43;5.70;;;4.07;;
3708;SDS011;1870;53.996;10.784;2023-06-22T13:56:09;4.70;;;4.30;;
3708;SDS011;1870;53.996;10.784;2023-06-22T13:58:37;5.60;;;4.93;;
3708;SDS011;1870;53.996;10.784;2023-06-22T14:07:55;4.87;;;4.50;;
3708;SDS011;1870;53.996;10.784;2023-06-22T14:10:29;4.80;;;4.33;;
3708;SDS011;1870;53.996;10.784;2023-06-22T14:12:55;5.90;;;5.40;;
3708;SDS011;1870;53.996;10.784;2023-06-22T14:15:21;4.80;;;4.33;;
3708;SDS011;1870;53.996;10.784;2023-06-22T14:17:47;4.67;;;4.37;;
3708;SDS011;1870;53.996;10.784;2023-06-22T14:20:16;5.23;;;4.73;;
3708;SDS011;1870;53.996;10.784;2023-06-22T14:22:41;7.40;;;5.60;;
3708;SDS011;1870;53.996;10.784;2023-06-22T14:25:07;4.97;;;4.53;;
3708;SDS011;1870;53.996;10.784;2023-06-22T14:27:35;5.33;;;4.40;;
3708;SDS011;1870;53.996;10.784;2023-06-22T14:30:04;6.10;;;4.13;;
3708;SDS011;1870;53.996;10.784;2023-06-22T14:32:30;5.50;;;4.10;;
3708;SDS011;1870;53.996;10.784;2023-06-22T14:34:56;4.30;;;4.00;;
3708;SDS011;1870;53.996;10.784;2023-06-22T14:37:22;6.60;;;3.90;;
3708;SDS011;1870;53.996;10.784;2023-06-22T14:39:49;4.47;;;4.17;;
3708;SDS011;1870;53.996;10.784;2023-06-22T14:42:14;3.93;;;3.63;;
3708;SDS011;1870;53.996;10.784;2023-06-22T14:44:40;5.67;;;3.70;;
3708;SDS011;1870;53.996;10.784;2023-06-22T14:47:06;3.70;;;3.40;;
3708;SDS011;1870;53.996;10.784;2023-06-22T14:49:34;3.90;;;3.60;;
3708;SDS011;1870;53.996;10.784;2023-06-22T14:52:01;4.90;;;4.13;;
3708;SDS011;1870;53.996;10.784;2023-06-22T14:54:26;4.50;;;4.07;;
3708;SDS011;1870;53.996;10.784;2023-06-22T14:56:52;3.47;;;3.17;;
3708;SDS011;1870;53.996;10.784;2023-06-22T14:59:17;4.33;;;3.57;;
3708;SDS011;1870;53.996;10.784;2023-06-22T15:01:43;3.57;;;3.37;;
3708;SDS011;1870;53.996;10.784;2023-06-22T15:04:11;4.00;;;3.60;;
3708;SDS011;1870;53.996;10.784;2023-06-22T15:06:43;4.20;;;3.67;;
3708;SDS011;1870;53.996;10.784;2023-06-22T15:09:10;3.77;;;3.37;;
3708;SDS011;1870;53.996;10.784;2023-06-22T15:11:35;3.70;;;3.40;;
3708;SDS011;1870;53.996;10.784;2023-06-22T15:14:01;3.80;;;3.40;;
3708;SDS011;1870;53.996;10.784;2023-06-22T15:16:27;5.23;;;4.10;;
3708;SDS011;1870;53.996;10.784;2023-06-22T15:18:52;5.93;;;4.03;;
3708;SDS011;1870;53.996;10.784;2023-06-22T15:21:18;4.40;;;3.40;;
3708;SDS011;1870;53.996;10.784;2023-06-22T15:23:44;4.50;;;4.10;;
3708;SDS011;1870;53.996;10.784;2023-06-22T15:26:10;4.47;;;4.17;;
3708;SDS011;1870;53.996;10.784;2023-06-22T15:28:38;8.53;;;4.50;;
3708;SDS011;1870;53.996;10.784;2023-06-22T15:31:05;6.57;;;4.10;;
3708;SDS011;1870;53.996;10.784;2023-06-22T15:33:55;4.40;;;4.10;;
3708;SDS011;1870;53.996;10.784;2023-06-22T15:36:34;4.53;;;4.23;;
3708;SDS011;1870;53.996;10.784;2023-06-22T15:39:07;5.00;;;4.60;;
3708;SDS011;1870;53.996;10.784;2023-06-22T15:41:32;4.70;;;4.30;;
3708;SDS011;1870;53.996;10.784;2023-06-22T15:46:55;5.60;;;5.10;;
3708;SDS011;1870;53.996;10.784;2023-06-22T15:49:24;6.60;;;5.13;;
3708;SDS011;1870;53.996;10.784;2023-06-22T15:51:50;8.63;;;5.17;;
3708;SDS011;1870;53.996;10.784;2023-06-22T15:54:25;4.90;;;4.40;;
3708;SDS011;1870;53.996;10.784;2023-06-22T15:56:51;5.80;;;4.57;;
3708;SDS011;1870;53.996;10.784;2023-06-22T15:59:17;7.13;;;4.57;;
3708;SDS011;1870;53.996;10.784;2023-06-22T16:01:43;5.40;;;4.80;;
3708;SDS011;1870;53.996;10.784;2023-06-22T16:04:08;6.23;;;5.13;;
3708;SDS011;1870;53.996;10.784;2023-06-22T16:06:34;6.77;;;3.80;;
3708;SDS011;1870;53.996;10.784;2023-06-22T16:09:00;4.40;;;3.83;;
3708;SDS011;1870;53.996;10.784;2023-06-22T16:11:28;6.63;;;4.63;;
3708;SDS011;1870;53.996;10.784;2023-06-22T16:13:54;4.83;;;4.37;;
3708;SDS011;1870;53.996;10.784;2023-06-22T16:16:19;5.50;;;3.70;;